createdAt,value
2023-01-15T00:01:58.475Z,14.90
2023-01-15T00:09:30.320Z,20.75
2023-01-15T00:17:02.101Z,22.33
2023-01-15T00:24:52.276Z,19.52
2023-01-15T00:32:27.086Z,15.27
2023-01-15T00:40:00.112Z,13.18
2023-01-15T00:47:31.875Z,19.77
2023-01-15T00:55:03.867Z,13.68
2023-01-15T01:02:35.745Z,16.08
2023-01-15T01:10:09.227Z,12.30
2023-01-15T01:17:41.202Z,11.73
2023-01-15T01:25:12.908Z,10.32
2023-01-15T01:32:44.778Z,11.30
2023-01-15T01:40:16.958Z,13.60
2023-01-15T01:47:48.715Z,11.27
2023-01-15T01:55:22.208Z,10.50
2023-01-15T02:02:53.973Z,9.90
2023-01-15T02:10:25.947Z,9.00
2023-01-15T02:18:08.696Z,8.48
2023-01-15T02:26:17.441Z,8.45
2023-01-15T02:34:06.503Z,5.63
2023-01-15T02:41:51.941Z,7.45
2023-01-15T02:49:24.609Z,9.77
2023-01-15T02:56:58.823Z,7.72
2023-01-15T03:04:41.021Z,6.38
2023-01-15T03:13:04.223Z,8.63
2023-01-15T03:20:47.776Z,6.88
2023-01-15T03:28:26.703Z,6.82
2023-01-15T03:36:00.026Z,6.15
2023-01-15T03:44:02.257Z,6.28
2023-01-15T03:51:41.213Z,5.60
2023-01-15T03:59:33.662Z,4.93
2023-01-15T04:07:07.411Z,4.30
2023-01-15T04:14:40.645Z,3.55
2023-01-15T04:22:15.855Z,5.07
2023-01-15T04:29:47.655Z,3.58
2023-01-15T04:37:19.490Z,4.03
2023-01-15T04:44:51.190Z,3.28
2023-01-15T04:52:22.987Z,3.38
2023-01-15T04:59:54.759Z,2.80
2023-01-15T05:07:26.589Z,3.13
2023-01-15T05:14:58.298Z,3.45
2023-01-15T05:22:30.109Z,2.22
2023-01-15T05:30:01.907Z,2.08
2023-01-15T05:37:33.692Z,2.97
2023-01-15T05:45:06.080Z,2.20
2023-01-15T05:52:37.881Z,1.63
2023-01-15T06:00:10.408Z,1.48
2023-01-15T06:07:44.465Z,2.22
2023-01-15T06:15:16.301Z,5.18
2023-01-15T06:22:49.370Z,1.27
2023-01-15T06:30:21.086Z,2.60
2023-01-15T06:37:52.804Z,1.27
2023-01-15T06:45:43.154Z,0.90
2023-01-15T06:53:14.910Z,1.85
2023-01-15T07:00:53.699Z,0.90
2023-01-15T07:08:25.433Z,0.95
2023-01-15T07:15:59.992Z,0.93
2023-01-15T07:23:31.792Z,0.80
2023-01-15T07:31:03.547Z,0.98
2023-01-15T07:38:35.292Z,0.93
2023-01-15T07:46:28.987Z,1.65
2023-01-15T07:54:00.780Z,1.08
2023-01-15T08:01:32.710Z,1.45
2023-01-15T08:09:04.663Z,0.82
2023-01-15T08:16:37.055Z,0.63
2023-01-15T08:24:08.827Z,2.35
2023-01-15T08:31:41.493Z,0.63
2023-01-15T08:39:13.279Z,2.42
2023-01-15T08:46:45.051Z,0.52
2023-01-15T08:54:17.094Z,2.10
2023-01-15T09:01:49.050Z,0.98
2023-01-15T09:09:20.865Z,0.30
2023-01-15T09:16:52.717Z,2.83
2023-01-15T09:24:24.557Z,1.55
2023-01-15T09:31:56.371Z,1.83
2023-01-15T09:39:28.139Z,1.75
2023-01-15T09:47:53.772Z,2.67
2023-01-15T10:00:24.099Z,6.60
2023-01-15T10:08:21.015Z,7.40
2023-01-15T10:15:52.924Z,4.47
2023-01-15T10:23:36.259Z,5.22
2023-01-15T10:31:19.459Z,12.15
2023-01-15T10:38:57.308Z,3.25
2023-01-15T10:46:37.941Z,7.63
2023-01-15T10:54:31.435Z,7.28
2023-01-15T11:02:03.825Z,5.63
2023-01-15T11:09:36.188Z,5.80
2023-01-15T11:17:31.839Z,4.63
2023-01-15T11:25:04.056Z,4.47
2023-01-15T11:32:38.868Z,4.45
2023-01-15T11:40:19.218Z,3.90
2023-01-15T11:48:13.550Z,5.85
2023-01-15T11:56:00.803Z,7.55
2023-01-15T12:03:32.925Z,5.35
2023-01-15T12:11:25.890Z,9.40
2023-01-15T12:19:05.759Z,3.95
2023-01-15T12:26:55.454Z,4.15
2023-01-15T12:34:56.071Z,3.75
2023-01-15T12:42:46.368Z,3.17
2023-01-15T12:50:45.069Z,3.42
2023-01-15T12:58:56.609Z,3.45
2023-01-15T13:06:31.963Z,5.93
2023-01-15T13:14:03.856Z,47.50
2023-01-15T13:21:35.993Z,40.17
2023-01-15T13:29:26.295Z,45.65
2023-01-15T13:37:12.012Z,48.25
2023-01-15T13:44:49.774Z,39.58
2023-01-15T13:52:37.236Z,37.22
2023-01-15T14:00:28.791Z,35.42
2023-01-15T14:08:01.886Z,30.88
2023-01-15T14:16:03.218Z,29.40
2023-01-15T14:23:52.889Z,27.30
2023-01-15T14:31:40.453Z,26.58
2023-01-15T14:39:48.840Z,27.15
2023-01-15T14:47:29.065Z,19.67
2023-01-15T14:55:00.941Z,20.58
2023-01-15T15:02:42.302Z,16.88
2023-01-15T15:10:19.604Z,16.08
2023-01-15T15:18:13.014Z,18.85
2023-01-15T15:25:55.687Z,17.15
2023-01-15T15:33:37.153Z,16.55
2023-01-15T15:41:11.520Z,12.32
2023-01-15T15:48:53.337Z,15.35
2023-01-15T15:56:25.171Z,15.98
2023-01-15T16:03:57.097Z,15.88
2023-01-15T16:11:29.042Z,11.57
2023-01-15T16:19:01.692Z,9.85
2023-01-15T16:26:36.864Z,17.33
2023-01-15T16:34:24.765Z,11.55
2023-01-15T16:41:57.789Z,12.30
2023-01-15T16:49:31.429Z,101.43
2023-01-15T16:57:29.986Z,120.00
2023-01-15T17:05:04.561Z,98.55
2023-01-15T17:12:39.459Z,86.07
2023-01-15T17:20:15.405Z,88.10
2023-01-15T17:27:47.313Z,81.07
2023-01-15T17:35:22.823Z,91.65
2023-01-15T17:42:54.599Z,180.45
2023-01-15T17:50:26.420Z,212.85
2023-01-15T17:58:16.536Z,211.65
2023-01-15T18:05:48.958Z,183.30
2023-01-15T18:13:20.850Z,170.43
2023-01-15T18:20:52.542Z,162.73
2023-01-15T18:28:24.517Z,155.40
2023-01-15T18:36:13.541Z,133.23
2023-01-15T18:44:03.904Z,95.78
2023-01-15T18:51:35.660Z,80.70
2023-01-15T18:59:14.455Z,82.13
2023-01-15T19:06:47.599Z,72.78
2023-01-15T19:14:38.245Z,71.30
2023-01-15T19:22:29.641Z,65.30
2023-01-15T19:30:02.372Z,60.70
2023-01-15T19:37:39.362Z,55.53
2023-01-15T19:45:30.107Z,54.00
2023-01-15T19:53:01.961Z,50.50
2023-01-15T20:00:36.967Z,47.80
2023-01-15T20:08:13.782Z,41.53
2023-01-15T20:15:45.784Z,39.67
2023-01-15T20:23:17.651Z,38.17
2023-01-15T20:30:49.603Z,36.92
2023-01-15T20:38:23.607Z,31.70
2023-01-15T20:45:56.820Z,35.75
2023-01-15T20:53:34.078Z,33.65
2023-01-15T21:01:06.718Z,32.70
2023-01-15T21:08:40.815Z,33.00
2023-01-15T21:16:13.310Z,25.63
2023-01-15T21:23:45.652Z,27.35
2023-01-15T21:31:17.709Z,26.25
2023-01-15T21:38:54.497Z,23.05
2023-01-15T21:46:27.852Z,23.40
2023-01-15T21:54:00.417Z,25.80
2023-01-15T22:01:32.555Z,20.08
2023-01-15T22:09:04.428Z,23.65
2023-01-15T22:16:36.182Z,23.70
2023-01-15T22:24:08.170Z,30.83
2023-01-15T22:31:41.111Z,22.92
2023-01-15T22:39:12.883Z,21.75
2023-01-15T22:46:45.006Z,20.55
2023-01-15T22:54:18.796Z,20.05
2023-01-15T23:01:51.161Z,17.70
2023-01-15T23:09:23.183Z,16.77
2023-01-15T23:16:55.044Z,16.50
2023-01-15T23:24:26.764Z,16.40
2023-01-15T23:31:58.450Z,16.42
2023-01-15T23:39:30.135Z,12.80
2023-01-15T23:47:01.924Z,9.68
2023-01-15T23:54:33.733Z,14.57
